sensor_id;sensor_type;location;lat;lon;timestamp;pressure;altitude;pressure_sealevel;temperature;humidity
62600;BME280;48671;48.922;2.346;2022-10-16T00:02:20;100939.47;;;17.45;70.20
62600;BME280;48671;48.922;2.346;2022-10-16T00:04:45;100912.25;;;17.31;70.41
62600;BME280;48671;48.922;2.346;2022-10-16T00:07:11;100918.53;;;17.29;69.94
62600;BME280;48671;48.922;2.346;2022-10-16T00:09:37;100908.13;;;17.27;69.93
62600;BME280;48671;48.922;2.346;2022-10-16T00:12:02;100882.53;;;17.17;70.24
62600;BME280;48671;48.922;2.346;2022-10-16T00:14:29;100942.84;;;17.47;70.24
62600;BME280;48671;48.922;2.346;2022-10-16T00:16:55;100917.63;;;17.30;70.41
62600;BME280;48671;48.922;2.346;2022-10-16T00:19:20;100955.44;;;17.42;70.20
62600;BME280;48671;48.922;2.346;2022-10-16T00:21:45;100946.63;;;17.28;70.09
62600;BME280;48671;48.922;2.346;2022-10-16T00:24:11;100973.13;;;17.40;70.20
62600;BME280;48671;48.922;2.346;2022-10-16T00:26:37;100970.81;;;17.48;69.83
62600;BME280;48671;48.922;2.346;2022-10-16T00:29:03;100953.44;;;17.45;70.00
62600;BME280;48671;48.922;2.346;2022-10-16T00:31:29;100899.59;;;17.24;70.27
62600;BME280;48671;48.922;2.346;2022-10-16T00:33:54;100929.25;;;17.40;69.98
62600;BME280;48671;48.922;2.346;2022-10-16T00:36:22;100902.97;;;17.26;70.49
62600;BME280;48671;48.922;2.346;2022-10-16T00:38:51;100927.66;;;17.38;70.10
62600;BME280;48671;48.922;2.346;2022-10-16T00:41:18;100970.34;;;17.55;70.14
62600;BME280;48671;48.922;2.346;2022-10-16T00:43:58;100963.69;;;17.50;69.97
62600;BME280;48671;48.922;2.346;2022-10-16T00:46:40;100974.09;;;17.51;70.09
62600;BME280;48671;48.922;2.346;2022-10-16T00:49:10;100973.66;;;17.45;70.52
62600;BME280;48671;48.922;2.346;2022-10-16T00:51:39;100943.25;;;17.26;70.36
62600;BME280;48671;48.922;2.346;2022-10-16T00:54:09;100921.97;;;17.02;70.49
62600;BME280;48671;48.922;2.346;2022-10-16T00:56:35;100971.13;;;17.29;70.74
62600;BME280;48671;48.922;2.346;2022-10-16T00:59:07;100964.00;;;17.31;70.82
62600;BME280;48671;48.922;2.346;2022-10-16T01:01:36;100938.13;;;17.11;71.14
62600;BME280;48671;48.922;2.346;2022-10-16T01:04:02;100919.63;;;17.12;70.53
62600;BME280;48671;48.922;2.346;2022-10-16T01:06:51;100971.06;;;17.30;71.34
62600;BME280;48671;48.922;2.346;2022-10-16T01:12:05;100975.22;;;17.20;71.08
62600;BME280;48671;48.922;2.346;2022-10-16T01:15:27;100986.84;;;17.30;70.77
62600;BME280;48671;48.922;2.346;2022-10-16T01:17:38;100953.97;;;17.09;70.75
62600;BME280;48671;48.922;2.346;2022-10-16T01:20:31;100982.97;;;17.22;70.47
62600;BME280;48671;48.922;2.346;2022-10-16T01:31:29;100957.06;;;17.16;70.62
62600;BME280;48671;48.922;2.346;2022-10-16T01:34:00;100998.09;;;17.32;70.51
62600;BME280;48671;48.922;2.346;2022-10-16T01:36:53;100979.69;;;17.18;70.40
62600;BME280;48671;48.922;2.346;2022-10-16T01:39:20;101005.91;;;17.34;70.38
62600;BME280;48671;48.922;2.346;2022-10-16T01:41:53;101000.63;;;17.34;70.43
62600;BME280;48671;48.922;2.346;2022-10-16T01:44:23;100990.88;;;17.22;70.43
62600;BME280;48671;48.922;2.346;2022-10-16T01:46:52;100980.94;;;17.27;70.12
62600;BME280;48671;48.922;2.346;2022-10-16T01:49:21;101000.53;;;17.36;70.22
62600;BME280;48671;48.922;2.346;2022-10-16T01:51:51;100997.91;;;17.36;70.45
62600;BME280;48671;48.922;2.346;2022-10-16T01:54:18;100978.38;;;17.25;70.40
62600;BME280;48671;48.922;2.346;2022-10-16T01:56:46;100998.72;;;17.36;70.26
62600;BME280;48671;48.922;2.346;2022-10-16T01:59:16;101000.44;;;17.37;69.82
62600;BME280;48671;48.922;2.346;2022-10-16T02:01:47;100981.75;;;17.27;70.13
62600;BME280;48671;48.922;2.346;2022-10-16T02:04:19;100991.16;;;17.31;69.88
62600;BME280;48671;48.922;2.346;2022-10-16T02:06:45;100946.75;;;16.98;69.41
62600;BME280;48671;48.922;2.346;2022-10-16T02:09:11;100990.69;;;17.25;70.30
62600;BME280;48671;48.922;2.346;2022-10-16T02:11:36;100993.19;;;17.26;69.61
62600;BME280;48671;48.922;2.346;2022-10-16T02:14:04;100999.41;;;17.25;69.67
62600;BME280;48671;48.922;2.346;2022-10-16T02:16:40;101003.53;;;17.29;70.03
62600;BME280;48671;48.922;2.346;2022-10-16T02:19:06;101000.63;;;17.34;70.11
62600;BME280;48671;48.922;2.346;2022-10-16T02:22:00;101008.53;;;17.34;69.70
62600;BME280;48671;48.922;2.346;2022-10-16T02:27:19;101008.72;;;17.31;69.61
62600;BME280;48671;48.922;2.346;2022-10-16T02:29:51;101014.94;;;17.30;70.10
62600;BME280;48671;48.922;2.346;2022-10-16T02:32:21;100998.47;;;17.26;69.87
62600;BME280;48671;48.922;2.346;2022-10-16T02:34:49;100992.94;;;17.31;69.67
62600;BME280;48671;48.922;2.346;2022-10-16T02:37:16;100988.25;;;17.22;69.88
62600;BME280;48671;48.922;2.346;2022-10-16T02:39:42;100980.53;;;17.19;69.49
62600;BME280;48671;48.922;2.346;2022-10-16T02:42:15;100985.44;;;17.25;69.64
62600;BME280;48671;48.922;2.346;2022-10-16T02:44:42;101001.78;;;17.30;69.55
62600;BME280;48671;48.922;2.346;2022-10-16T02:47:07;100999.22;;;17.28;69.08
62600;BME280;48671;48.922;2.346;2022-10-16T02:49:33;101001.19;;;17.25;69.33
62600;BME280;48671;48.922;2.346;2022-10-16T02:51:58;100996.88;;;17.09;69.32
62600;BME280;48671;48.922;2.346;2022-10-16T02:54:23;100982.72;;;16.98;69.12
62600;BME280;48671;48.922;2.346;2022-10-16T02:56:49;101008.25;;;17.10;69.16
62600;BME280;48671;48.922;2.346;2022-10-16T02:59:14;101001.59;;;17.04;69.31
62600;BME280;48671;48.922;2.346;2022-10-16T03:01:39;101017.66;;;17.14;68.78
62600;BME280;48671;48.922;2.346;2022-10-16T03:04:05;101033.97;;;17.19;69.14
62600;BME280;48671;48.922;2.346;2022-10-16T03:06:30;101018.88;;;17.08;68.77
62600;BME280;48671;48.922;2.346;2022-10-16T03:08:55;101017.66;;;17.14;68.88
62600;BME280;48671;48.922;2.346;2022-10-16T03:11:20;101020.94;;;17.18;68.56
62600;BME280;48671;48.922;2.346;2022-10-16T03:13:46;101018.03;;;17.08;68.96
62600;BME280;48671;48.922;2.346;2022-10-16T03:16:11;101002.50;;;17.03;68.92
62600;BME280;48671;48.922;2.346;2022-10-16T03:18:36;101020.47;;;17.11;68.97
62600;BME280;48671;48.922;2.346;2022-10-16T03:21:02;101024.28;;;17.20;68.38
62600;BME280;48671;48.922;2.346;2022-10-16T03:23:27;101012.41;;;17.14;68.28
62600;BME280;48671;48.922;2.346;2022-10-16T03:25:53;101024.28;;;17.20;68.28
62600;BME280;48671;48.922;2.346;2022-10-16T03:28:19;100978.56;;;16.94;68.48
62600;BME280;48671;48.922;2.346;2022-10-16T03:30:44;100961.50;;;16.87;68.52
62600;BME280;48671;48.922;2.346;2022-10-16T03:33:10;101001.22;;;17.11;68.24
62600;BME280;48671;48.922;2.346;2022-10-16T03:35:35;101001.22;;;17.11;67.99
62600;BME280;48671;48.922;2.346;2022-10-16T03:38:00;100993.53;;;17.07;68.27
62600;BME280;48671;48.922;2.346;2022-10-16T03:40:26;101011.75;;;17.11;68.13
62600;BME280;48671;48.922;2.346;2022-10-16T03:42:51;101016.13;;;17.10;67.68
62600;BME280;48671;48.922;2.346;2022-10-16T03:45:16;100992.41;;;16.97;68.08
62600;BME280;48671;48.922;2.346;2022-10-16T03:47:42;101013.41;;;17.12;67.98
62600;BME280;48671;48.922;2.346;2022-10-16T03:50:08;101031.81;;;17.12;67.79
62600;BME280;48671;48.922;2.346;2022-10-16T03:52:33;101021.31;;;16.97;67.91
62600;BME280;48671;48.922;2.346;2022-10-16T03:54:59;101024.00;;;17.10;67.92
62600;BME280;48671;48.922;2.346;2022-10-16T03:57:24;101013.72;;;17.07;67.74
62600;BME280;48671;48.922;2.346;2022-10-16T03:59:49;101004.59;;;16.98;67.84
62600;BME280;48671;48.922;2.346;2022-10-16T04:02:15;101036.78;;;17.16;67.79
62600;BME280;48671;48.922;2.346;2022-10-16T04:04:41;101018.03;;;17.08;67.82
62600;BME280;48671;48.922;2.346;2022-10-16T04:07:06;100988.16;;;16.95;67.51
62600;BME280;48671;48.922;2.346;2022-10-16T04:09:32;100980.66;;;16.89;67.48
62600;BME280;48671;48.922;2.346;2022-10-16T04:11:57;101025.53;;;17.14;67.95
62600;BME280;48671;48.922;2.346;2022-10-16T04:14:22;101039.16;;;17.21;67.60
62600;BME280;48671;48.922;2.346;2022-10-16T04:16:47;101034.81;;;17.20;67.85
62600;BME280;48671;48.922;2.346;2022-10-16T04:19:13;101041.03;;;17.19;67.49
62600;BME280;48671;48.922;2.346;2022-10-16T04:21:38;101047.78;;;17.23;67.65
62600;BME280;48671;48.922;2.346;2022-10-16T04:24:03;101044.13;;;17.25;67.72
62600;BME280;48671;48.922;2.346;2022-10-16T04:26:29;101009.47;;;17.04;67.82
62600;BME280;48671;48.922;2.346;2022-10-16T04:28:54;101053.31;;;17.32;67.76
62600;BME280;48671;48.922;2.346;2022-10-16T04:31:20;101045.63;;;17.29;67.93
62600;BME280;48671;48.922;2.346;2022-10-16T04:33:45;101029.00;;;17.15;68.19
62600;BME280;48671;48.922;2.346;2022-10-16T04:36:11;101024.13;;;17.08;68.06
62600;BME280;48671;48.922;2.346;2022-10-16T04:38:36;101067.78;;;17.25;67.98
62600;BME280;48671;48.922;2.346;2022-10-16T04:41:03;101058.78;;;17.15;67.88
62600;BME280;48671;48.922;2.346;2022-10-16T04:43:28;101079.25;;;17.24;67.88
62600;BME280;48671;48.922;2.346;2022-10-16T04:45:54;101065.16;;;17.11;67.67
62600;BME280;48671;48.922;2.346;2022-10-16T04:48:19;101089.31;;;17.18;67.84
62600;BME280;48671;48.922;2.346;2022-10-16T04:50:45;101076.69;;;17.08;68.21
62600;BME280;48671;48.922;2.346;2022-10-16T04:53:10;101065.31;;;16.94;68.02
62600;BME280;48671;48.922;2.346;2022-10-16T04:55:36;101086.56;;;17.05;68.51
62600;BME280;48671;48.922;2.346;2022-10-16T04:58:02;101081.59;;;17.00;68.26
62600;BME280;48671;48.922;2.346;2022-10-16T05:00:28;101075.16;;;16.90;68.38
62600;BME280;48671;48.922;2.346;2022-10-16T05:02:53;101088.72;;;16.98;68.26
62600;BME280;48671;48.922;2.346;2022-10-16T05:05:18;101112.56;;;17.09;68.58
62600;BME280;48671;48.922;2.346;2022-10-16T05:07:47;101098.88;;;17.04;68.40
62600;BME280;48671;48.922;2.346;2022-10-16T05:10:12;101093.19;;;16.96;68.82
62600;BME280;48671;48.922;2.346;2022-10-16T05:12:38;101102.69;;;16.99;68.34
62600;BME280;48671;48.922;2.346;2022-10-16T05:15:04;101113.22;;;17.13;68.88
62600;BME280;48671;48.922;2.346;2022-10-16T05:17:29;101103.66;;;17.12;68.60
62600;BME280;48671;48.922;2.346;2022-10-16T05:19:55;101107.03;;;17.14;68.58
62600;BME280;48671;48.922;2.346;2022-10-16T05:22:20;101126.84;;;17.20;68.24
62600;BME280;48671;48.922;2.346;2022-10-16T05:24:45;101120.63;;;17.06;68.23
62600;BME280;48671;48.922;2.346;2022-10-16T05:27:11;101137.00;;;17.12;68.20
62600;BME280;48671;48.922;2.346;2022-10-16T05:29:47;101127.00;;;17.02;68.34
62600;BME280;48671;48.922;2.346;2022-10-16T05:32:14;101105.97;;;16.88;68.40
62600;BME280;48671;48.922;2.346;2022-10-16T05:34:40;101094.03;;;16.82;68.57
62600;BME280;48671;48.922;2.346;2022-10-16T05:37:05;101114.88;;;17.00;68.22
62600;BME280;48671;48.922;2.346;2022-10-16T05:39:31;101119.59;;;17.09;68.24
62600;BME280;48671;48.922;2.346;2022-10-16T05:41:56;101125.44;;;17.14;68.27
62600;BME280;48671;48.922;2.346;2022-10-16T05:44:21;101130.25;;;17.22;68.26
62600;BME280;48671;48.922;2.346;2022-10-16T05:46:47;101133.72;;;17.22;68.69
62600;BME280;48671;48.922;2.346;2022-10-16T05:49:12;101129.41;;;17.21;67.97
62600;BME280;48671;48.922;2.346;2022-10-16T05:51:38;101096.31;;;17.03;68.73
62600;BME280;48671;48.922;2.346;2022-10-16T05:54:03;101115.97;;;17.12;68.15
62600;BME280;48671;48.922;2.346;2022-10-16T05:56:28;101127.31;;;17.12;68.23
62600;BME280;48671;48.922;2.346;2022-10-16T05:58:54;101130.22;;;17.07;68.46
62600;BME280;48671;48.922;2.346;2022-10-16T06:01:19;101136.53;;;17.19;68.54
62600;BME280;48671;48.922;2.346;2022-10-16T06:03:49;101151.38;;;17.20;68.09
62600;BME280;48671;48.922;2.346;2022-10-16T06:06:20;101141.72;;;17.21;68.38
62600;BME280;48671;48.922;2.346;2022-10-16T06:08:47;101149.84;;;17.16;67.89
62600;BME280;48671;48.922;2.346;2022-10-16T06:11:17;101128.13;;;16.98;68.26
62600;BME280;48671;48.922;2.346;2022-10-16T06:13:42;101117.31;;;16.89;68.38
62600;BME280;48671;48.922;2.346;2022-10-16T06:16:09;101118.44;;;16.84;68.24
62600;BME280;48671;48.922;2.346;2022-10-16T06:18:35;101141.47;;;16.95;68.12
62600;BME280;48671;48.922;2.346;2022-10-16T06:21:08;101123.69;;;16.84;68.19
62600;BME280;48671;48.922;2.346;2022-10-16T06:23:34;101124.44;;;16.87;68.43
62600;BME280;48671;48.922;2.346;2022-10-16T06:26:10;101135.72;;;16.89;68.51
62600;BME280;48671;48.922;2.346;2022-10-16T06:28:36;101140.38;;;16.83;68.64
62600;BME280;48671;48.922;2.346;2022-10-16T06:31:03;101149.03;;;16.85;68.36
62600;BME280;48671;48.922;2.346;2022-10-16T06:33:29;101141.25;;;16.84;68.35
62600;BME280;48671;48.922;2.346;2022-10-16T06:36:03;101141.16;;;16.85;68.68
62600;BME280;48671;48.922;2.346;2022-10-16T06:38:29;101123.41;;;16.73;68.41
62600;BME280;48671;48.922;2.346;2022-10-16T06:40:55;101149.22;;;16.82;68.48
62600;BME280;48671;48.922;2.346;2022-10-16T06:43:20;101145.28;;;16.74;68.30
62600;BME280;48671;48.922;2.346;2022-10-16T06:45:56;101166.59;;;16.85;68.76
62600;BME280;48671;48.922;2.346;2022-10-16T06:48:22;101159.91;;;16.79;68.60
62600;BME280;48671;48.922;2.346;2022-10-16T06:51:11;101165.56;;;16.88;68.65
62600;BME280;48671;48.922;2.346;2022-10-16T06:53:41;101163.69;;;16.90;69.05
62600;BME280;48671;48.922;2.346;2022-10-16T06:56:08;101168.69;;;16.94;68.83
62600;BME280;48671;48.922;2.346;2022-10-16T06:58:34;101151.38;;;16.90;68.97
62600;BME280;48671;48.922;2.346;2022-10-16T07:01:00;101175.75;;;17.08;68.85
62600;BME280;48671;48.922;2.346;2022-10-16T07:03:25;101147.31;;;17.15;68.61
62600;BME280;48671;48.922;2.346;2022-10-16T07:05:50;101153.19;;;17.48;67.59
62600;BME280;48671;48.922;2.346;2022-10-16T07:08:16;101179.72;;;17.88;67.29
62600;BME280;48671;48.922;2.346;2022-10-16T07:10:41;101186.41;;;17.94;66.99
62600;BME280;48671;48.922;2.346;2022-10-16T07:13:06;101193.72;;;18.03;66.53
62600;BME280;48671;48.922;2.346;2022-10-16T07:15:32;101181.97;;;18.09;66.09
62600;BME280;48671;48.922;2.346;2022-10-16T07:17:58;101192.78;;;18.18;65.80
62600;BME280;48671;48.922;2.346;2022-10-16T07:20:23;101204.88;;;18.21;65.50
62600;BME280;48671;48.922;2.346;2022-10-16T07:22:48;101204.63;;;18.11;65.48
62600;BME280;48671;48.922;2.346;2022-10-16T07:25:14;101198.88;;;18.05;66.11
62600;BME280;48671;48.922;2.346;2022-10-16T07:27:39;101205.41;;;17.99;66.13
62600;BME280;48671;48.922;2.346;2022-10-16T07:30:05;101211.41;;;18.15;66.15
62600;BME280;48671;48.922;2.346;2022-10-16T07:32:31;101205.41;;;18.55;64.68
62600;BME280;48671;48.922;2.346;2022-10-16T07:34:56;101205.34;;;18.69;64.31
62600;BME280;48671;48.922;2.346;2022-10-16T07:37:22;101186.25;;;18.92;63.68
62600;BME280;48671;48.922;2.346;2022-10-16T07:39:47;101212.41;;;19.48;62.40
62600;BME280;48671;48.922;2.346;2022-10-16T07:42:12;101226.81;;;19.82;62.23
62600;BME280;48671;48.922;2.346;2022-10-16T07:44:38;101228.81;;;19.92;61.38
62600;BME280;48671;48.922;2.346;2022-10-16T07:47:03;101228.06;;;19.90;61.65
62600;BME280;48671;48.922;2.346;2022-10-16T07:49:28;101221.06;;;19.63;61.40
62600;BME280;48671;48.922;2.346;2022-10-16T07:51:53;101229.75;;;19.52;61.25
62600;BME280;48671;48.922;2.346;2022-10-16T07:54:19;101189.16;;;19.28;61.31
62600;BME280;48671;48.922;2.346;2022-10-16T07:56:44;101217.16;;;19.43;61.24
62600;BME280;48671;48.922;2.346;2022-10-16T07:59:10;101246.25;;;19.69;60.09
62600;BME280;48671;48.922;2.346;2022-10-16T08:01:35;101229.50;;;19.55;60.58
62600;BME280;48671;48.922;2.346;2022-10-16T08:04:00;101254.75;;;19.59;61.04
62600;BME280;48671;48.922;2.346;2022-10-16T08:06:26;101252.31;;;19.44;61.17
62600;BME280;48671;48.922;2.346;2022-10-16T08:08:51;101259.16;;;19.33;62.07
62600;BME280;48671;48.922;2.346;2022-10-16T08:11:17;101225.94;;;19.04;62.12
62600;BME280;48671;48.922;2.346;2022-10-16T08:13:42;101263.06;;;19.01;61.97
62600;BME280;48671;48.922;2.346;2022-10-16T08:16:08;101229.44;;;18.63;62.27
62600;BME280;48671;48.922;2.346;2022-10-16T08:18:35;101253.16;;;18.63;62.28
62600;BME280;48671;48.922;2.346;2022-10-16T08:21:02;101272.47;;;18.63;63.08
62600;BME280;48671;48.922;2.346;2022-10-16T08:23:28;101244.28;;;18.37;63.04
62600;BME280;48671;48.922;2.346;2022-10-16T08:25:54;101262.91;;;18.48;62.95
62600;BME280;48671;48.922;2.346;2022-10-16T08:28:20;101255.94;;;18.47;63.62
62600;BME280;48671;48.922;2.346;2022-10-16T08:30:46;101242.28;;;18.40;63.79
62600;BME280;48671;48.922;2.346;2022-10-16T08:33:11;101163.91;;;17.88;63.92
62600;BME280;48671;48.922;2.346;2022-10-16T08:35:37;101238.84;;;18.25;65.06
62600;BME280;48671;48.922;2.346;2022-10-16T08:38:03;101256.34;;;18.27;65.68
62600;BME280;48671;48.922;2.346;2022-10-16T08:40:31;101254.56;;;18.13;65.80
62600;BME280;48671;48.922;2.346;2022-10-16T08:43:20;101272.53;;;18.20;65.57
62600;BME280;48671;48.922;2.346;2022-10-16T08:46:16;101273.28;;;18.22;65.97
62600;BME280;48671;48.922;2.346;2022-10-16T08:48:51;101274.97;;;18.23;66.06
62600;BME280;48671;48.922;2.346;2022-10-16T08:51:24;101258.34;;;18.09;65.94
62600;BME280;48671;48.922;2.346;2022-10-16T08:53:56;101280.41;;;18.20;65.48
62600;BME280;48671;48.922;2.346;2022-10-16T08:56:23;101268.56;;;18.13;65.92
62600;BME280;48671;48.922;2.346;2022-10-16T08:58:50;101253.53;;;18.01;65.98
62600;BME280;48671;48.922;2.346;2022-10-16T09:01:17;101283.44;;;18.14;66.12
62600;BME280;48671;48.922;2.346;2022-10-16T09:04:28;101287.59;;;18.18;66.30
62600;BME280;48671;48.922;2.346;2022-10-16T09:06:55;101281.66;;;18.15;65.91
62600;BME280;48671;48.922;2.346;2022-10-16T09:09:41;101294.34;;;18.22;66.01
62600;BME280;48671;48.922;2.346;2022-10-16T09:12:22;101303.19;;;18.36;66.00
62600;BME280;48671;48.922;2.346;2022-10-16T09:23:30;101253.47;;;18.73;65.31
62600;BME280;48671;48.922;2.346;2022-10-16T09:25:59;101242.78;;;18.88;64.20
62600;BME280;48671;48.922;2.346;2022-10-16T09:28:25;101271.56;;;19.18;65.10
62600;BME280;48671;48.922;2.346;2022-10-16T09:30:51;101274.03;;;19.34;63.49
62600;BME280;48671;48.922;2.346;2022-10-16T09:33:19;101274.97;;;19.33;63.74
62600;BME280;48671;48.922;2.346;2022-10-16T09:35:49;101296.25;;;19.57;63.35
62600;BME280;48671;48.922;2.346;2022-10-16T09:38:32;101279.16;;;19.63;63.21
62600;BME280;48671;48.922;2.346;2022-10-16T09:41:21;101287.13;;;19.76;63.33
62600;BME280;48671;48.922;2.346;2022-10-16T09:43:59;101289.22;;;19.71;62.82
62600;BME280;48671;48.922;2.346;2022-10-16T09:48:59;101304.28;;;19.56;62.10
62600;BME280;48671;48.922;2.346;2022-10-16T09:51:28;101304.97;;;19.45;63.14
62600;BME280;48671;48.922;2.346;2022-10-16T09:53:58;101311.22;;;19.44;62.77
62600;BME280;48671;48.922;2.346;2022-10-16T09:56:27;101302.44;;;19.44;62.17
62600;BME280;48671;48.922;2.346;2022-10-16T09:58:56;101298.22;;;19.41;62.54
62600;BME280;48671;48.922;2.346;2022-10-16T10:01:26;101285.22;;;19.38;62.59
62600;BME280;48671;48.922;2.346;2022-10-16T10:03:56;101286.69;;;19.29;62.75
62600;BME280;48671;48.922;2.346;2022-10-16T10:06:29;101237.63;;;19.00;62.12
62600;BME280;48671;48.922;2.346;2022-10-16T10:11:41;101287.53;;;19.30;62.26
62600;BME280;48671;48.922;2.346;2022-10-16T10:14:46;101271.72;;;19.30;62.30
62600;BME280;48671;48.922;2.346;2022-10-16T10:17:12;101286.63;;;19.44;62.35
62600;BME280;48671;48.922;2.346;2022-10-16T10:19:50;101278.59;;;19.58;61.80
62600;BME280;48671;48.922;2.346;2022-10-16T10:22:27;101245.78;;;19.62;61.71
62600;BME280;48671;48.922;2.346;2022-10-16T10:27:35;101244.13;;;19.86;60.72
62600;BME280;48671;48.922;2.346;2022-10-16T10:30:19;101267.25;;;19.96;60.45
62600;BME280;48671;48.922;2.346;2022-10-16T10:35:42;101268.44;;;19.92;60.33
62600;BME280;48671;48.922;2.346;2022-10-16T10:52:38;101254.91;;;19.83;60.02
62600;BME280;48671;48.922;2.346;2022-10-16T11:06:30;101248.97;;;19.93;59.91
62600;BME280;48671;48.922;2.346;2022-10-16T11:09:09;101240.63;;;19.99;59.87
62600;BME280;48671;48.922;2.346;2022-10-16T11:11:44;101224.97;;;20.08;60.31
62600;BME280;48671;48.922;2.346;2022-10-16T11:14:23;101234.50;;;20.11;60.38
62600;BME280;48671;48.922;2.346;2022-10-16T11:16:56;101253.50;;;20.16;60.17
62600;BME280;48671;48.922;2.346;2022-10-16T11:22:50;101241.56;;;20.10;60.11
62600;BME280;48671;48.922;2.346;2022-10-16T11:25:36;101254.34;;;20.17;60.64
62600;BME280;48671;48.922;2.346;2022-10-16T11:31:15;101245.69;;;20.15;60.86
62600;BME280;48671;48.922;2.346;2022-10-16T11:34:49;101243.13;;;20.13;60.79
62600;BME280;48671;48.922;2.346;2022-10-16T11:37:04;101246.13;;;20.08;61.77
62600;BME280;48671;48.922;2.346;2022-10-16T11:39:31;101236.69;;;20.04;61.35
62600;BME280;48671;48.922;2.346;2022-10-16T11:42:09;101236.06;;;20.01;61.52
62600;BME280;48671;48.922;2.346;2022-10-16T11:47:32;101231.13;;;19.96;61.81
62600;BME280;48671;48.922;2.346;2022-10-16T11:55:45;101204.28;;;20.02;61.60
62600;BME280;48671;48.922;2.346;2022-10-16T11:58:27;101209.94;;;20.22;61.72
62600;BME280;48671;48.922;2.346;2022-10-16T12:03:28;101194.38;;;20.30;61.27
62600;BME280;48671;48.922;2.346;2022-10-16T12:08:51;101173.31;;;20.41;61.20
62600;BME280;48671;48.922;2.346;2022-10-16T12:16:38;101176.34;;;20.61;60.91
62600;BME280;48671;48.922;2.346;2022-10-16T12:19:14;101188.38;;;20.65;60.21
62600;BME280;48671;48.922;2.346;2022-10-16T12:21:41;101192.91;;;20.63;60.51
62600;BME280;48671;48.922;2.346;2022-10-16T12:25:05;101192.81;;;20.64;60.59
62600;BME280;48671;48.922;2.346;2022-10-16T12:27:23;101199.78;;;20.65;60.50
62600;BME280;48671;48.922;2.346;2022-10-16T12:29:55;101180.59;;;20.50;60.14
62600;BME280;48671;48.922;2.346;2022-10-16T12:34:53;101173.53;;;20.38;60.78
62600;BME280;48671;48.922;2.346;2022-10-16T12:37:28;101190.09;;;20.53;60.90
62600;BME280;48671;48.922;2.346;2022-10-16T12:39:56;101184.09;;;20.51;61.27
62600;BME280;48671;48.922;2.346;2022-10-16T12:44:51;101188.72;;;20.60;61.10
62600;BME280;48671;48.922;2.346;2022-10-16T12:47:24;101178.63;;;20.65;60.77
62600;BME280;48671;48.922;2.346;2022-10-16T12:50:00;101167.56;;;20.60;60.74
62600;BME280;48671;48.922;2.346;2022-10-16T12:54:56;101171.16;;;20.59;60.81
62600;BME280;48671;48.922;2.346;2022-10-16T12:58:31;101171.06;;;20.61;61.29
62600;BME280;48671;48.922;2.346;2022-10-16T13:00:32;101168.94;;;20.53;61.54
62600;BME280;48671;48.922;2.346;2022-10-16T13:06:02;101170.09;;;20.62;62.04
62600;BME280;48671;48.922;2.346;2022-10-16T13:15:11;101158.53;;;20.63;61.77
62600;BME280;48671;48.922;2.346;2022-10-16T13:17:45;101170.03;;;20.74;61.59
62600;BME280;48671;48.922;2.346;2022-10-16T13:28:11;101139.59;;;21.04;61.21
62600;BME280;48671;48.922;2.346;2022-10-16T13:30:41;101132.56;;;21.38;61.37
62600;BME280;48671;48.922;2.346;2022-10-16T13:33:15;101132.34;;;21.53;60.70
62600;BME280;48671;48.922;2.346;2022-10-16T13:35:56;101134.16;;;21.63;60.69
62600;BME280;48671;48.922;2.346;2022-10-16T13:38:26;101132.34;;;21.75;59.90
62600;BME280;48671;48.922;2.346;2022-10-16T13:41:18;101131.13;;;21.68;60.58
62600;BME280;48671;48.922;2.346;2022-10-16T13:43:51;101137.63;;;21.64;60.86
62600;BME280;48671;48.922;2.346;2022-10-16T13:46:20;101129.81;;;21.62;60.79
62600;BME280;48671;48.922;2.346;2022-10-16T13:49:10;101130.75;;;21.84;60.81
62600;BME280;48671;48.922;2.346;2022-10-16T13:51:36;101134.13;;;21.86;60.49
62600;BME280;48671;48.922;2.346;2022-10-16T13:56:31;101138.47;;;21.87;60.59
62600;BME280;48671;48.922;2.346;2022-10-16T13:59:22;101145.22;;;21.80;60.90
62600;BME280;48671;48.922;2.346;2022-10-16T14:01:49;101149.19;;;21.74;60.69
62600;BME280;48671;48.922;2.346;2022-10-16T14:04:16;101129.91;;;21.61;60.95
62600;BME280;48671;48.922;2.346;2022-10-16T14:06:44;101099.13;;;21.48;61.33
62600;BME280;48671;48.922;2.346;2022-10-16T14:09:26;101136.56;;;21.66;60.98
62600;BME280;48671;48.922;2.346;2022-10-16T14:11:56;101095.25;;;21.41;60.91
62600;BME280;48671;48.922;2.346;2022-10-16T14:14:23;101092.63;;;21.41;60.86
62600;BME280;48671;48.922;2.346;2022-10-16T14:16:50;101135.22;;;21.72;61.71
62600;BME280;48671;48.922;2.346;2022-10-16T14:21:45;101140.28;;;21.75;61.07
62600;BME280;48671;48.922;2.346;2022-10-16T14:24:12;101137.75;;;21.73;61.32
62600;BME280;48671;48.922;2.346;2022-10-16T14:26:43;101142.69;;;21.67;61.90
62600;BME280;48671;48.922;2.346;2022-10-16T14:29:18;101132.47;;;21.62;61.53
62600;BME280;48671;48.922;2.346;2022-10-16T14:32:22;101130.16;;;21.58;61.79
62600;BME280;48671;48.922;2.346;2022-10-16T14:34:39;101130.28;;;21.56;61.62
62600;BME280;48671;48.922;2.346;2022-10-16T14:37:22;101127.75;;;21.55;62.28
62600;BME280;48671;48.922;2.346;2022-10-16T14:39:50;101119.09;;;21.64;61.79
62600;BME280;48671;48.922;2.346;2022-10-16T14:42:16;101128.13;;;21.72;61.83
62600;BME280;48671;48.922;2.346;2022-10-16T14:44:44;101126.56;;;21.70;61.79
62600;BME280;48671;48.922;2.346;2022-10-16T14:47:16;101136.66;;;21.76;61.46
62600;BME280;48671;48.922;2.346;2022-10-16T14:49:42;101119.59;;;21.69;61.21
62600;BME280;48671;48.922;2.346;2022-10-16T14:52:11;101132.44;;;21.73;61.40
62600;BME280;48671;48.922;2.346;2022-10-16T14:54:37;101133.41;;;21.72;61.64
62600;BME280;48671;48.922;2.346;2022-10-16T14:57:03;101127.88;;;21.64;61.79
62600;BME280;48671;48.922;2.346;2022-10-16T14:59:36;101136.78;;;21.63;62.33